createdAt,value
2019-03-04T00:00:57.440Z,28.12
2019-03-04T00:02:04.172Z,24.32
2019-03-04T00:03:11.068Z,25.43
2019-03-04T00:04:17.979Z,27.87
2019-03-04T00:05:24.994Z,26.27
2019-03-04T00:06:32.072Z,27.58
2019-03-04T00:07:39.263Z,27.93
2019-03-04T00:08:46.311Z,23.67
2019-03-04T00:09:54.384Z,27.10
2019-03-04T00:11:02.962Z,29.15
2019-03-04T00:12:10.106Z,32.88
2019-03-04T00:13:17.280Z,28.50
2019-03-04T00:14:24.318Z,25.55
2019-03-04T00:15:31.466Z,23.95
2019-03-04T00:16:38.469Z,29.92
2019-03-04T00:17:45.835Z,28.85
2019-03-04T00:18:52.889Z,24.07
2019-03-04T00:20:00.015Z,28.95
2019-03-04T00:21:06.815Z,27.45
2019-03-04T00:22:14.049Z,31.97
2019-03-04T00:23:20.913Z,25.70
2019-03-04T00:24:27.782Z,24.95
2019-03-04T00:25:34.982Z,23.83
2019-03-04T00:26:41.567Z,29.63
2019-03-04T00:27:48.469Z,30.48
2019-03-04T00:28:55.440Z,24.30
2019-03-04T00:30:02.517Z,25.82
2019-03-04T00:31:09.631Z,23.02
2019-03-04T00:32:16.697Z,26.87
2019-03-04T00:33:23.376Z,24.67
2019-03-04T00:34:30.109Z,21.60
2019-03-04T00:35:36.925Z,24.10
2019-03-04T00:36:43.584Z,27.35
2019-03-04T00:37:50.330Z,31.35
2019-03-04T00:38:57.011Z,24.90
2019-03-04T00:40:03.697Z,28.10
2019-03-04T00:41:10.811Z,22.80
2019-03-04T00:42:17.532Z,21.60
2019-03-04T00:43:24.151Z,27.02
2019-03-04T00:44:32.608Z,24.23
2019-03-04T00:45:39.746Z,23.60
2019-03-04T00:46:46.538Z,23.00
2019-03-04T00:47:53.753Z,24.82
2019-03-04T00:49:00.450Z,27.05
2019-03-04T00:50:08.251Z,29.12
2019-03-04T00:51:15.484Z,27.32
2019-03-04T00:52:22.562Z,23.90
2019-03-04T00:53:29.598Z,26.70
2019-03-04T00:54:36.299Z,24.77
2019-03-04T00:55:43.500Z,25.35
2019-03-04T00:56:50.507Z,27.85
2019-03-04T00:57:57.406Z,25.65
2019-03-04T00:59:04.320Z,26.12
2019-03-04T01:00:15.923Z,25.97
2019-03-04T01:01:22.697Z,21.50
2019-03-04T01:02:29.444Z,22.85
2019-03-04T01:03:36.527Z,25.37
2019-03-04T01:04:43.402Z,27.22
2019-03-04T01:05:50.559Z,28.67
2019-03-04T01:06:57.532Z,25.37
2019-03-04T01:08:04.510Z,29.12
2019-03-04T01:09:14.577Z,22.90
2019-03-04T01:10:22.019Z,24.92
2019-03-04T01:11:28.659Z,27.93
2019-03-04T01:12:35.474Z,26.48
2019-03-04T01:13:42.565Z,26.87
2019-03-04T01:14:49.629Z,24.95
2019-03-04T01:15:56.661Z,21.97
2019-03-04T01:17:05.211Z,24.10
2019-03-04T01:18:12.263Z,25.62
2019-03-04T01:19:18.957Z,22.32
2019-03-04T01:20:26.009Z,21.37
2019-03-04T01:21:33.228Z,26.40
2019-03-04T01:22:41.089Z,23.80
2019-03-04T01:23:47.943Z,21.23
2019-03-04T01:24:54.790Z,20.35
2019-03-04T01:26:03.037Z,22.60
2019-03-04T01:27:09.960Z,22.55
2019-03-04T01:28:17.188Z,18.77
2019-03-04T01:29:24.445Z,25.43
2019-03-04T01:30:31.617Z,25.32
2019-03-04T01:31:38.660Z,19.12
2019-03-04T01:32:45.746Z,19.20
2019-03-04T01:33:52.755Z,19.35
2019-03-04T01:34:59.764Z,19.95
2019-03-04T01:36:06.541Z,22.32
2019-03-04T01:37:13.368Z,21.60
2019-03-04T01:38:20.577Z,22.80
2019-03-04T01:39:28.696Z,20.62
2019-03-04T01:40:35.849Z,27.45
2019-03-04T01:41:42.650Z,22.58
2019-03-04T01:42:49.889Z,21.02
2019-03-04T01:43:56.741Z,21.82
2019-03-04T01:45:03.706Z,24.05
2019-03-04T01:46:10.339Z,18.40
2019-03-04T01:47:17.481Z,21.07
2019-03-04T01:48:24.310Z,23.25
2019-03-04T01:49:31.414Z,18.73
2019-03-04T01:50:38.369Z,20.45
2019-03-04T01:51:45.248Z,23.57
2019-03-04T01:52:51.890Z,23.10
2019-03-04T01:53:58.899Z,24.85
2019-03-04T01:55:05.640Z,18.48
2019-03-04T01:56:12.290Z,21.10
2019-03-04T01:57:19.264Z,22.48
2019-03-04T01:58:26.550Z,20.55
2019-03-04T01:59:34.554Z,19.00
2019-03-04T02:00:41.820Z,19.02
2019-03-04T02:01:49.408Z,18.92
2019-03-04T02:02:56.562Z,22.20
2019-03-04T02:04:03.527Z,20.45
2019-03-04T02:05:10.597Z,22.22
2019-03-04T02:06:17.625Z,24.20
2019-03-04T02:07:24.549Z,19.85
2019-03-04T02:08:31.151Z,23.83
2019-03-04T02:09:37.900Z,19.30
2019-03-04T02:10:44.943Z,18.62
2019-03-04T02:11:52.062Z,19.75
2019-03-04T02:12:58.809Z,20.35
2019-03-04T02:14:05.530Z,16.75
2019-03-04T02:15:14.373Z,20.43
2019-03-04T02:16:22.646Z,19.32
2019-03-04T02:17:29.471Z,16.10
2019-03-04T02:18:36.415Z,17.10
2019-03-04T02:19:43.402Z,19.37
2019-03-04T02:20:50.360Z,20.20
2019-03-04T02:21:57.490Z,17.60
2019-03-04T02:23:04.735Z,15.83
2019-03-04T02:24:22.388Z,21.73
2019-03-04T02:26:21.371Z,18.50
2019-03-04T02:27:28.574Z,22.25
2019-03-04T02:28:35.689Z,16.57
2019-03-04T02:29:42.570Z,18.95
2019-03-04T02:30:50.338Z,19.20
2019-03-04T02:31:57.393Z,16.42
2019-03-04T02:33:04.234Z,15.20
2019-03-04T02:34:11.075Z,14.25
2019-03-04T02:35:18.201Z,18.70
2019-03-04T02:36:25.009Z,18.98
2019-03-04T02:37:31.921Z,14.47
2019-03-04T02:38:38.912Z,14.70
2019-03-04T02:39:46.004Z,14.18
2019-03-04T02:40:53.080Z,16.70
2019-03-04T02:41:59.858Z,13.93
2019-03-04T02:43:06.909Z,13.43
2019-03-04T02:44:14.041Z,15.68
2019-03-04T02:45:21.258Z,17.73
2019-03-04T02:46:28.374Z,16.05
2019-03-04T02:47:35.682Z,18.20
2019-03-04T02:48:42.733Z,14.63
2019-03-04T02:49:49.609Z,16.48
2019-03-04T02:50:56.241Z,17.45
2019-03-04T02:52:03.398Z,17.07
2019-03-04T02:53:10.330Z,16.45
2019-03-04T02:54:17.417Z,15.23
2019-03-04T02:55:24.203Z,14.73
2019-03-04T02:56:31.149Z,15.60
2019-03-04T02:57:38.078Z,17.15
2019-03-04T02:58:45.396Z,15.28
2019-03-04T02:59:52.390Z,18.82
2019-03-04T03:00:59.180Z,15.88
2019-03-04T03:02:08.071Z,14.33
2019-03-04T03:03:15.008Z,14.43
2019-03-04T03:04:21.759Z,13.53
2019-03-04T03:05:28.781Z,15.53
2019-03-04T03:06:35.567Z,11.80
2019-03-04T03:07:42.536Z,15.48
2019-03-04T03:08:49.563Z,16.32
2019-03-04T03:09:56.705Z,16.75
2019-03-04T03:11:03.827Z,17.95
2019-03-04T03:12:11.961Z,21.70
2019-03-04T03:13:18.773Z,17.23
2019-03-04T03:14:25.822Z,19.17
2019-03-04T03:15:32.428Z,19.42
2019-03-04T03:16:39.753Z,20.80
2019-03-04T03:17:46.794Z,17.52
2019-03-04T03:18:53.728Z,15.80
2019-03-04T03:20:00.643Z,17.37
2019-03-04T03:21:08.054Z,20.27
2019-03-04T03:22:14.990Z,19.52
2019-03-04T03:23:22.162Z,19.85
2019-03-04T03:24:29.181Z,15.45
2019-03-04T03:25:36.294Z,16.10
2019-03-04T03:26:44.991Z,16.97
2019-03-04T03:27:52.176Z,15.80
2019-03-04T03:29:00.493Z,13.05
2019-03-04T03:30:09.091Z,14.53
2019-03-04T03:31:16.001Z,14.38
2019-03-04T03:32:22.868Z,17.20
2019-03-04T03:33:29.564Z,11.25
2019-03-04T03:34:36.331Z,16.80
2019-03-04T03:35:43.409Z,13.22
2019-03-04T03:36:50.178Z,14.83
2019-03-04T03:37:56.860Z,13.00
2019-03-04T03:39:04.609Z,13.53
2019-03-04T03:40:13.949Z,10.03
2019-03-04T03:41:21.189Z,12.20
2019-03-04T03:42:27.950Z,15.30
2019-03-04T03:43:34.807Z,12.75
2019-03-04T03:44:41.450Z,10.72
2019-03-04T03:45:48.478Z,15.00
2019-03-04T03:46:55.723Z,12.55
2019-03-04T03:48:02.721Z,15.15
2019-03-04T03:49:09.658Z,11.28
2019-03-04T03:50:16.796Z,13.05
2019-03-04T03:51:23.838Z,10.40
2019-03-04T03:52:30.711Z,15.72
2019-03-04T03:53:37.873Z,10.08
2019-03-04T03:54:44.811Z,13.05
2019-03-04T03:55:51.791Z,10.20
2019-03-04T03:56:58.497Z,10.40
2019-03-04T03:58:05.332Z,8.95
2019-03-04T03:59:12.011Z,10.55
2019-03-04T04:00:20.386Z,9.83
2019-03-04T04:01:27.001Z,8.73
2019-03-04T04:02:34.170Z,9.60
2019-03-04T04:03:41.326Z,11.70
2019-03-04T04:04:48.868Z,14.83
2019-03-04T04:05:55.498Z,11.90
2019-03-04T04:07:02.631Z,9.05
2019-03-04T04:08:09.533Z,12.20
2019-03-04T04:09:17.063Z,11.22
2019-03-04T04:10:23.982Z,10.15
2019-03-04T04:11:30.942Z,9.68
2019-03-04T04:12:38.659Z,11.28
2019-03-04T04:13:45.422Z,10.15
2019-03-04T04:14:52.725Z,12.65
2019-03-04T04:15:59.733Z,13.25
2019-03-04T04:17:06.842Z,9.45
2019-03-04T04:18:15.210Z,10.82
2019-03-04T04:19:22.238Z,11.08
2019-03-04T04:20:29.465Z,11.22
2019-03-04T04:21:37.374Z,16.00
2019-03-04T04:22:44.363Z,8.55
2019-03-04T04:23:51.248Z,10.18
2019-03-04T04:24:59.911Z,15.80
2019-03-04T04:26:26.021Z,10.45
2019-03-04T04:27:33.088Z,9.10
2019-03-04T04:28:39.999Z,9.88
2019-03-04T04:29:46.870Z,10.53
2019-03-04T04:30:53.918Z,9.40
2019-03-04T04:32:02.969Z,11.95
2019-03-04T04:33:09.798Z,11.95
2019-03-04T04:34:16.554Z,9.60
2019-03-04T04:35:23.260Z,11.40
2019-03-04T04:36:29.983Z,9.68
2019-03-04T04:37:36.737Z,10.30
2019-03-04T04:38:44.351Z,11.75
2019-03-04T04:39:51.265Z,15.88
2019-03-04T04:40:57.930Z,11.08
2019-03-04T04:42:04.564Z,7.72
2019-03-04T04:43:11.331Z,11.60
2019-03-04T04:44:19.350Z,11.00
2019-03-04T04:45:26.460Z,9.35
2019-03-04T04:46:53.464Z,10.35
2019-03-04T04:48:00.472Z,10.28
2019-03-04T04:49:07.696Z,9.68
2019-03-04T04:50:15.326Z,9.80
2019-03-04T04:51:22.047Z,10.23
2019-03-04T04:52:29.012Z,10.98
2019-03-04T04:53:36.014Z,12.95
2019-03-04T04:54:43.019Z,13.00
2019-03-04T04:55:50.151Z,12.90
2019-03-04T04:56:57.058Z,12.25
2019-03-04T04:58:04.127Z,11.60
2019-03-04T04:59:11.167Z,9.98
2019-03-04T05:00:18.818Z,12.47
2019-03-04T05:01:25.498Z,9.10
2019-03-04T05:02:32.504Z,7.60
2019-03-04T05:03:39.292Z,7.78
2019-03-04T05:04:46.429Z,9.18
2019-03-04T05:05:53.390Z,13.08
2019-03-04T05:07:00.252Z,13.80
2019-03-04T05:08:07.400Z,10.20
2019-03-04T05:09:14.219Z,9.55
2019-03-04T05:10:21.029Z,9.93
2019-03-04T05:11:27.818Z,10.82
2019-03-04T05:12:34.418Z,12.95
2019-03-04T05:13:41.611Z,9.73
2019-03-04T05:14:49.047Z,7.10
2019-03-04T05:15:56.041Z,7.90
2019-03-04T05:17:03.095Z,9.55
2019-03-04T05:18:10.818Z,9.40
2019-03-04T05:19:17.948Z,7.65
2019-03-04T05:20:25.099Z,9.78
2019-03-04T05:21:32.098Z,10.05
2019-03-04T05:22:39.201Z,12.00
2019-03-04T05:23:46.298Z,10.28
2019-03-04T05:24:53.620Z,10.45
2019-03-04T05:26:00.826Z,13.65
2019-03-04T05:27:07.839Z,9.60
2019-03-04T05:28:14.991Z,12.55
2019-03-04T05:29:22.019Z,8.45
2019-03-04T05:30:29.069Z,8.10
2019-03-04T05:31:36.152Z,10.25
2019-03-04T05:32:43.197Z,9.28
2019-03-04T05:33:49.941Z,7.90
2019-03-04T05:34:57.246Z,9.95
2019-03-04T05:36:04.314Z,8.78
2019-03-04T05:37:11.199Z,9.23
2019-03-04T05:38:18.249Z,15.98
2019-03-04T05:39:25.175Z,8.78
2019-03-04T05:40:32.298Z,10.13
2019-03-04T05:41:38.947Z,8.35
2019-03-04T05:42:46.385Z,9.48
2019-03-04T05:43:53.387Z,11.88
2019-03-04T05:45:00.103Z,9.85
2019-03-04T05:46:07.210Z,7.78
2019-03-04T05:47:14.133Z,8.43
2019-03-04T05:48:21.297Z,8.55
2019-03-04T05:49:28.352Z,9.70
2019-03-04T05:50:35.371Z,10.35
2019-03-04T05:51:42.971Z,11.50
2019-03-04T05:52:49.932Z,8.60
2019-03-04T05:53:57.043Z,10.23
2019-03-04T05:55:03.786Z,6.40
2019-03-04T05:56:10.901Z,9.40
2019-03-04T05:57:17.906Z,8.70
2019-03-04T05:58:25.058Z,7.53
2019-03-04T05:59:31.961Z,9.65
2019-03-04T06:00:40.659Z,8.98
2019-03-04T06:02:03.646Z,7.12
2019-03-04T06:03:11.431Z,8.75
2019-03-04T06:04:19.507Z,7.60
2019-03-04T06:05:26.481Z,9.15
2019-03-04T06:06:59.254Z,7.25
2019-03-04T06:08:07.543Z,11.33
2019-03-04T06:09:14.715Z,9.65
2019-03-04T06:10:21.543Z,7.95
2019-03-04T06:11:28.888Z,7.50
2019-03-04T06:12:35.990Z,9.08
2019-03-04T06:13:42.989Z,7.08
2019-03-04T06:14:49.887Z,5.55
2019-03-04T06:15:57.588Z,10.30
2019-03-04T06:17:04.843Z,7.37
2019-03-04T06:18:11.958Z,6.37
2019-03-04T06:19:18.596Z,7.20
2019-03-04T06:20:26.486Z,9.20
2019-03-04T06:21:33.567Z,6.58
2019-03-04T06:22:40.808Z,7.85
2019-03-04T06:23:47.891Z,9.38
2019-03-04T06:24:55.251Z,6.08
2019-03-04T06:26:02.447Z,9.15
2019-03-04T06:27:09.567Z,7.78
2019-03-04T06:28:16.872Z,9.60
2019-03-04T06:29:24.064Z,8.10
2019-03-04T06:30:31.020Z,8.43
2019-03-04T06:31:38.017Z,8.78
2019-03-04T06:32:44.705Z,10.20
2019-03-04T06:33:51.506Z,10.43
2019-03-04T06:34:58.479Z,8.78
2019-03-04T06:36:06.323Z,9.78
2019-03-04T06:37:13.369Z,9.35
2019-03-04T06:38:20.050Z,10.93
2019-03-04T06:39:27.254Z,9.53
2019-03-04T06:40:34.558Z,7.80
2019-03-04T06:41:41.782Z,10.82
2019-03-04T06:42:49.179Z,8.83
2019-03-04T06:43:56.323Z,7.80
2019-03-04T06:45:03.599Z,7.47
2019-03-04T06:46:10.636Z,10.45
2019-03-04T06:47:17.887Z,10.03
2019-03-04T06:48:24.994Z,7.78
2019-03-04T06:49:32.042Z,11.83
2019-03-04T06:50:52.932Z,6.78
2019-03-04T06:52:00.679Z,10.90
2019-03-04T06:53:07.750Z,8.53
2019-03-04T06:54:55.102Z,8.95
2019-03-04T06:56:11.617Z,7.20
2019-03-04T06:57:45.202Z,9.65
2019-03-04T06:58:54.329Z,8.15
2019-03-04T07:00:47.257Z,10.90
2019-03-04T07:01:57.317Z,8.63
2019-03-04T07:03:07.898Z,10.00
2019-03-04T07:04:26.757Z,10.78
2019-03-04T07:05:47.391Z,11.38
2019-03-04T07:06:54.500Z,6.42
2019-03-04T07:08:01.670Z,8.60
2019-03-04T07:09:17.515Z,9.65
2019-03-04T07:10:24.085Z,8.28
2019-03-04T07:11:31.882Z,7.35
2019-03-04T07:12:39.100Z,7.58
2019-03-04T07:13:46.615Z,8.48
2019-03-04T07:14:53.957Z,10.25
2019-03-04T07:16:00.611Z,10.38
2019-03-04T07:17:07.481Z,6.67
2019-03-04T07:18:14.604Z,7.35
2019-03-04T07:19:28.968Z,7.47
2019-03-04T07:20:36.566Z,8.93
2019-03-04T07:21:43.478Z,9.80
2019-03-04T07:22:50.638Z,9.85
2019-03-04T07:23:58.057Z,10.65
2019-03-04T07:25:05.388Z,10.28
2019-03-04T07:26:12.119Z,10.23
2019-03-04T07:27:18.998Z,8.93
2019-03-04T07:28:25.803Z,8.65
2019-03-04T07:29:32.418Z,9.60
2019-03-04T07:30:39.271Z,12.05
2019-03-04T07:31:47.574Z,11.93
2019-03-04T07:32:54.811Z,9.03
2019-03-04T07:34:01.570Z,10.72
2019-03-04T07:35:08.920Z,8.18
2019-03-04T07:36:16.032Z,10.38
2019-03-04T07:37:23.018Z,11.03
2019-03-04T07:38:44.890Z,9.75
2019-03-04T07:39:52.165Z,9.45
2019-03-04T07:40:59.359Z,10.05
2019-03-04T07:42:06.563Z,8.88
2019-03-04T07:43:14.040Z,9.78
2019-03-04T07:44:20.781Z,12.13
2019-03-04T07:45:27.961Z,10.48
2019-03-04T07:46:35.193Z,8.25
2019-03-04T07:47:42.403Z,9.20
2019-03-04T07:48:49.718Z,8.23
2019-03-04T07:49:56.887Z,8.90
2019-03-04T07:51:14.052Z,11.53
2019-03-04T07:52:21.542Z,9.88
2019-03-04T07:53:28.281Z,10.03
2019-03-04T07:54:37.131Z,9.88
2019-03-04T07:55:44.209Z,8.85
2019-03-04T07:56:51.694Z,8.40
2019-03-04T07:57:59.087Z,7.70
2019-03-04T07:59:06.262Z,8.63
2019-03-04T08:00:14.339Z,10.85
2019-03-04T08:01:21.091Z,10.23
2019-03-04T08:02:28.889Z,8.60
2019-03-04T08:03:35.649Z,9.48
2019-03-04T08:04:42.694Z,8.68
2019-03-04T08:05:50.866Z,11.10
2019-03-04T08:07:38.139Z,6.17
2019-03-04T08:09:21.456Z,8.20
2019-03-04T08:11:05.202Z,10.50
2019-03-04T08:13:04.834Z,8.48
2019-03-04T08:14:11.859Z,7.40
2019-03-04T08:15:18.559Z,9.20
2019-03-04T08:16:25.333Z,10.23
2019-03-04T08:17:32.060Z,10.32
2019-03-04T08:18:39.258Z,8.78
2019-03-04T08:19:46.548Z,7.47
2019-03-04T08:20:53.581Z,9.95
2019-03-04T08:22:00.931Z,11.18
2019-03-04T08:23:10.035Z,11.53
2019-03-04T08:24:16.644Z,15.00
2019-03-04T08:25:23.971Z,11.40
2019-03-04T08:26:31.061Z,10.10
2019-03-04T08:27:38.094Z,12.13
2019-03-04T08:28:45.302Z,10.80
2019-03-04T08:29:52.938Z,13.70
2019-03-04T08:31:00.006Z,15.93
2019-03-04T08:32:07.939Z,10.15
2019-03-04T08:33:14.775Z,11.38
2019-03-04T08:34:30.539Z,7.62
2019-03-04T08:35:29.910Z,9.65
2019-03-04T08:36:36.705Z,8.48
2019-03-04T08:37:43.450Z,7.90
2019-03-04T08:38:50.318Z,7.30
2019-03-04T08:39:57.069Z,8.50
2019-03-04T08:41:03.815Z,12.60
2019-03-04T08:42:10.551Z,8.90
2019-03-04T08:43:17.459Z,8.00
2019-03-04T08:44:24.364Z,6.47
2019-03-04T08:45:31.312Z,6.95
2019-03-04T08:46:38.661Z,8.18
2019-03-04T08:47:45.690Z,9.75
2019-03-04T08:48:52.952Z,6.65
2019-03-04T08:49:59.757Z,6.97
2019-03-04T08:51:06.799Z,10.50
2019-03-04T08:52:13.769Z,8.58
2019-03-04T08:53:20.923Z,9.63
2019-03-04T08:54:27.564Z,8.68
2019-03-04T08:55:34.747Z,7.80
2019-03-04T08:56:41.734Z,6.53
2019-03-04T08:57:48.706Z,9.18
2019-03-04T08:58:55.878Z,8.05
2019-03-04T09:00:02.968Z,3.92
2019-03-04T09:01:10.771Z,9.28
2019-03-04T09:02:17.704Z,11.63
2019-03-04T09:03:24.731Z,7.80
2019-03-04T09:04:31.740Z,9.00
2019-03-04T09:05:38.923Z,9.58
2019-03-04T09:06:45.882Z,10.95
2019-03-04T09:07:52.904Z,5.35
2019-03-04T09:09:01.111Z,7.50
2019-03-04T09:10:14.321Z,7.55
2019-03-04T09:11:21.431Z,4.87
2019-03-04T09:12:29.145Z,8.53
2019-03-04T09:13:36.130Z,7.80
2019-03-04T09:14:43.717Z,7.40
2019-03-04T09:15:50.450Z,5.47
2019-03-04T09:16:57.334Z,9.85
2019-03-04T09:18:04.388Z,10.78
2019-03-04T09:19:11.569Z,6.12
2019-03-04T09:20:19.177Z,7.80
2019-03-04T09:21:26.407Z,5.08
2019-03-04T09:22:33.590Z,4.95
2019-03-04T09:23:41.467Z,7.67
2019-03-04T09:24:48.465Z,8.03
2019-03-04T09:26:00.301Z,7.10
2019-03-04T09:27:08.469Z,7.85
2019-03-04T09:28:15.416Z,4.22
2019-03-04T09:29:22.254Z,7.22
2019-03-04T09:30:29.268Z,6.72
2019-03-04T09:31:36.626Z,6.95
2019-03-04T09:32:43.591Z,7.05
2019-03-04T09:33:50.273Z,6.55
2019-03-04T09:34:56.942Z,6.45
2019-03-04T09:36:04.291Z,9.90
2019-03-04T09:37:11.664Z,7.97
2019-03-04T09:38:18.778Z,7.72
2019-03-04T09:39:26.146Z,6.08
2019-03-04T09:40:33.529Z,5.45
2019-03-04T09:41:40.986Z,6.42
2019-03-04T09:42:48.172Z,6.47
2019-03-04T09:43:55.700Z,5.30
2019-03-04T09:45:02.629Z,6.55
2019-03-04T09:46:09.887Z,6.10
2019-03-04T09:47:16.830Z,8.38
2019-03-04T09:48:24.005Z,7.58
2019-03-04T09:49:31.234Z,6.90
2019-03-04T09:50:38.265Z,5.97
2019-03-04T09:51:46.214Z,6.08
2019-03-04T09:52:53.030Z,8.20
2019-03-04T09:53:59.763Z,7.65
2019-03-04T09:55:06.709Z,8.85
2019-03-04T09:56:14.194Z,10.50
2019-03-04T09:57:21.881Z,7.08
2019-03-04T09:58:28.810Z,4.97
2019-03-04T09:59:35.775Z,8.93
2019-03-04T10:00:50.774Z,7.10
2019-03-04T10:02:06.426Z,8.70
2019-03-04T10:03:44.460Z,7.83
2019-03-04T10:05:23.465Z,6.83
2019-03-04T10:06:56.409Z,4.30
2019-03-04T10:08:11.397Z,6.90
2019-03-04T10:10:16.575Z,8.28
2019-03-04T10:11:58.391Z,4.65
2019-03-04T10:13:41.745Z,6.58
2019-03-04T10:15:32.117Z,6.10
2019-03-04T10:16:53.060Z,6.95
2019-03-04T10:18:21.972Z,6.53
2019-03-04T10:19:51.218Z,4.67
2019-03-04T10:21:13.958Z,5.15
2019-03-04T10:22:34.240Z,5.87
2019-03-04T10:23:59.540Z,6.53
2019-03-04T10:25:23.420Z,4.42
2019-03-04T10:27:17.470Z,4.20
2019-03-04T10:29:17.570Z,7.50
2019-03-04T10:31:11.141Z,3.67
2019-03-04T10:32:43.131Z,4.58
2019-03-04T10:34:29.231Z,5.22
2019-03-04T10:35:51.672Z,4.12
2019-03-04T10:37:27.798Z,7.35
2019-03-04T10:38:56.100Z,6.17
2019-03-04T10:40:46.629Z,4.83
2019-03-04T10:42:18.656Z,4.15
2019-03-04T10:43:45.490Z,6.00
2019-03-04T10:45:35.303Z,4.08
2019-03-04T10:47:03.035Z,4.03
2019-03-04T10:48:10.242Z,3.92
2019-03-04T10:49:17.606Z,5.60
2019-03-04T10:50:24.981Z,6.60
2019-03-04T10:51:32.137Z,3.35
2019-03-04T10:52:38.884Z,5.78
2019-03-04T10:53:46.053Z,4.03
2019-03-04T10:54:53.291Z,6.10
2019-03-04T10:56:00.450Z,6.53
2019-03-04T10:57:08.592Z,9.13
2019-03-04T10:58:15.644Z,9.00
2019-03-04T10:59:23.633Z,6.72
2019-03-04T11:00:30.835Z,5.62
2019-03-04T11:01:37.546Z,6.20
2019-03-04T11:02:44.859Z,5.83
2019-03-04T11:03:51.882Z,4.75
2019-03-04T11:04:59.074Z,7.30
2019-03-04T11:06:06.455Z,3.52
2019-03-04T11:07:13.102Z,3.12
2019-03-04T11:08:20.243Z,4.12
2019-03-04T11:09:29.231Z,7.22
2019-03-04T11:10:36.467Z,5.03
2019-03-04T11:11:43.350Z,3.72
2019-03-04T11:12:50.700Z,4.55
2019-03-04T11:13:58.873Z,4.45
2019-03-04T11:15:09.969Z,4.20
2019-03-04T11:16:16.732Z,4.10
2019-03-04T11:17:23.835Z,3.65
2019-03-04T11:18:30.982Z,5.00
2019-03-04T11:19:38.044Z,4.47
2019-03-04T11:20:45.120Z,5.45
2019-03-04T11:21:51.912Z,4.20
2019-03-04T11:22:58.839Z,2.80
2019-03-04T11:24:06.312Z,8.63
2019-03-04T11:25:13.764Z,5.12
2019-03-04T11:26:21.248Z,7.35
2019-03-04T11:27:29.582Z,4.28
2019-03-04T11:28:36.804Z,4.78
2019-03-04T11:29:43.960Z,6.20
2019-03-04T11:30:51.029Z,4.75
2019-03-04T11:31:58.300Z,2.90
2019-03-04T11:33:05.599Z,4.05
2019-03-04T11:34:12.647Z,4.67
2019-03-04T11:35:19.455Z,4.37
2019-03-04T11:36:26.782Z,6.90
2019-03-04T11:37:34.008Z,3.47
2019-03-04T11:38:43.221Z,4.33
2019-03-04T11:40:12.213Z,4.25
2019-03-04T11:41:24.038Z,6.70
2019-03-04T11:42:31.040Z,4.62
2019-03-04T11:43:37.949Z,5.75
2019-03-04T11:44:45.777Z,5.40
2019-03-04T11:45:52.727Z,7.60
2019-03-04T11:46:59.880Z,5.62
2019-03-04T11:48:07.132Z,3.90
2019-03-04T11:49:14.923Z,4.17
2019-03-04T11:50:21.901Z,5.08
2019-03-04T11:51:29.009Z,5.25
2019-03-04T11:52:36.305Z,4.33
2019-03-04T11:53:43.408Z,3.87
2019-03-04T11:54:50.283Z,6.15
2019-03-04T11:55:58.450Z,4.22
2019-03-04T11:57:05.611Z,5.92
2019-03-04T11:58:13.851Z,5.78
2019-03-04T11:59:21.040Z,5.62
2019-03-04T12:00:35.647Z,2.75
2019-03-04T12:01:45.322Z,3.60
2019-03-04T12:02:52.244Z,4.08
2019-03-04T12:03:59.210Z,6.87
2019-03-04T12:05:06.702Z,6.22
2019-03-04T12:06:13.830Z,3.15
2019-03-04T12:07:20.686Z,6.00
2019-03-04T12:08:28.369Z,3.70
2019-03-04T12:09:35.318Z,4.25
2019-03-04T12:10:42.624Z,3.67
2019-03-04T12:11:49.699Z,5.03
2019-03-04T12:12:57.177Z,4.17
2019-03-04T12:14:05.130Z,7.78
2019-03-04T12:15:14.328Z,6.53
2019-03-04T12:16:20.826Z,7.47
2019-03-04T12:17:27.849Z,7.33
2019-03-04T12:18:34.759Z,2.90
2019-03-04T12:19:41.651Z,3.58
2019-03-04T12:20:48.391Z,6.53
2019-03-04T12:21:55.291Z,3.87
2019-03-04T12:23:02.678Z,6.33
2019-03-04T12:24:09.788Z,6.80
2019-03-04T12:25:17.735Z,3.70
2019-03-04T12:26:24.718Z,3.15
2019-03-04T12:27:31.700Z,3.50
2019-03-04T12:28:41.066Z,4.42
2019-03-04T12:29:48.120Z,3.50
2019-03-04T12:30:55.223Z,3.22
2019-03-04T12:32:16.543Z,4.40
2019-03-04T12:33:23.623Z,6.10
2019-03-04T12:34:30.472Z,6.55
2019-03-04T12:35:38.735Z,4.00
2019-03-04T12:36:45.603Z,3.15
2019-03-04T12:37:52.235Z,4.95
2019-03-04T12:38:58.950Z,5.33
2019-03-04T12:40:06.730Z,5.70
2019-03-04T12:41:14.690Z,5.50
2019-03-04T12:42:21.492Z,2.95
2019-03-04T12:43:28.601Z,6.70
2019-03-04T12:44:35.934Z,4.40
2019-03-04T12:45:42.957Z,5.55
2019-03-04T12:46:50.229Z,5.75
2019-03-04T12:47:57.727Z,5.53
2019-03-04T12:49:04.682Z,3.47
2019-03-04T12:50:24.006Z,4.75
2019-03-04T12:51:31.230Z,6.83
2019-03-04T12:52:38.355Z,4.70
2019-03-04T12:53:44.995Z,5.17
2019-03-04T12:54:52.520Z,3.52
2019-03-04T12:55:59.700Z,4.95
2019-03-04T12:57:06.884Z,7.58
2019-03-04T12:58:14.148Z,5.37
2019-03-04T12:59:21.004Z,6.60
2019-03-04T13:00:28.210Z,3.72
2019-03-04T13:01:34.916Z,6.78
2019-03-04T13:02:42.071Z,5.47
2019-03-04T13:03:49.527Z,2.90
2019-03-04T13:04:57.017Z,6.28
2019-03-04T13:06:05.551Z,5.78
2019-03-04T13:07:12.484Z,6.15
2019-03-04T13:08:19.584Z,8.30
2019-03-04T13:09:26.703Z,3.72
2019-03-04T13:10:33.819Z,4.37
2019-03-04T13:11:41.073Z,4.50
2019-03-04T13:12:48.242Z,5.83
2019-03-04T13:13:55.535Z,9.18
2019-03-04T13:15:02.830Z,7.30
2019-03-04T13:16:09.751Z,7.37
2019-03-04T13:17:16.431Z,8.25
2019-03-04T13:18:23.546Z,8.78
2019-03-04T13:19:30.889Z,5.95
2019-03-04T13:20:39.305Z,5.17
2019-03-04T13:21:46.402Z,6.72
2019-03-04T13:22:53.737Z,5.85
2019-03-04T13:24:01.067Z,8.58
2019-03-04T13:25:09.037Z,5.00
2019-03-04T13:26:16.405Z,4.60
2019-03-04T13:27:23.949Z,4.58
2019-03-04T13:28:31.248Z,5.35
2019-03-04T13:29:38.438Z,4.33
2019-03-04T13:30:45.673Z,4.97
2019-03-04T13:31:52.886Z,4.75
2019-03-04T13:33:00.162Z,8.08
2019-03-04T13:34:06.919Z,4.05
2019-03-04T13:35:24.147Z,5.78
2019-03-04T13:36:24.130Z,5.03
2019-03-04T13:37:32.151Z,3.70
2019-03-04T13:38:38.796Z,4.58
2019-03-04T13:39:46.182Z,5.40
2019-03-04T13:40:53.510Z,5.78
2019-03-04T13:42:02.240Z,6.25
2019-03-04T13:43:09.457Z,4.25
2019-03-04T13:44:17.418Z,3.80
2019-03-04T13:45:24.617Z,4.75
2019-03-04T13:46:32.003Z,8.10
2019-03-04T13:47:38.690Z,5.85
2019-03-04T13:48:46.134Z,7.30
2019-03-04T13:49:53.431Z,9.40
2019-03-04T13:51:00.799Z,7.42
2019-03-04T13:52:08.021Z,6.60
2019-03-04T13:53:14.948Z,4.03
2019-03-04T13:54:22.103Z,6.37
2019-03-04T13:55:29.678Z,4.25
2019-03-04T13:56:36.750Z,5.40
2019-03-04T13:57:44.019Z,7.22
2019-03-04T13:58:51.724Z,7.15
2019-03-04T13:59:59.776Z,4.60
2019-03-04T14:01:07.982Z,4.90
2019-03-04T14:02:14.863Z,6.03
2019-03-04T14:03:22.481Z,6.05
2019-03-04T14:04:29.451Z,7.50
2019-03-04T14:05:36.517Z,4.05
2019-03-04T14:06:43.862Z,5.62
2019-03-04T14:07:51.168Z,5.60
2019-03-04T14:08:59.058Z,4.90
2019-03-04T14:10:06.406Z,8.23
2019-03-04T14:11:13.751Z,5.60
2019-03-04T14:12:21.008Z,7.65
2019-03-04T14:13:28.292Z,6.05
2019-03-04T14:14:35.556Z,4.92
2019-03-04T14:15:43.033Z,7.87
2019-03-04T14:16:49.794Z,5.35
2019-03-04T14:17:57.364Z,5.75
2019-03-04T14:19:04.653Z,5.80
2019-03-04T14:20:12.048Z,6.33
2019-03-04T14:21:19.220Z,4.97
2019-03-04T14:22:26.026Z,5.75
2019-03-04T14:23:33.048Z,9.38
2019-03-04T14:24:40.182Z,6.33
2019-03-04T14:25:47.269Z,5.08
2019-03-04T14:26:54.464Z,3.27
2019-03-04T14:28:02.495Z,4.85
2019-03-04T14:29:09.718Z,6.28
2019-03-04T14:30:17.961Z,3.40
2019-03-04T14:31:25.107Z,5.62
2019-03-04T14:32:32.503Z,5.15
2019-03-04T14:33:39.321Z,4.53
2019-03-04T14:34:46.426Z,3.37
2019-03-04T14:35:53.778Z,5.42
2019-03-04T14:37:03.398Z,3.77
2019-03-04T14:38:11.275Z,5.72
2019-03-04T14:39:18.523Z,5.28
2019-03-04T14:40:26.333Z,7.53
2019-03-04T14:41:34.119Z,10.30
2019-03-04T14:42:41.550Z,5.92
2019-03-04T14:43:48.720Z,7.17
2019-03-04T14:44:55.848Z,4.10
2019-03-04T14:46:03.400Z,3.08
2019-03-04T14:47:10.806Z,6.80
2019-03-04T14:48:18.218Z,9.00
2019-03-04T14:49:25.677Z,4.08
2019-03-04T14:50:33.098Z,4.28
2019-03-04T14:51:40.143Z,4.00
2019-03-04T14:52:47.864Z,5.90
2019-03-04T14:53:55.151Z,5.60
2019-03-04T14:55:02.498Z,4.80
2019-03-04T14:56:10.080Z,7.85
2019-03-04T14:57:17.288Z,4.95
2019-03-04T14:58:24.509Z,6.75
2019-03-04T14:59:31.583Z,3.33
2019-03-04T15:00:39.919Z,5.55
2019-03-04T15:01:46.876Z,5.35
2019-03-04T15:02:54.346Z,7.28
2019-03-04T15:04:02.561Z,5.10
2019-03-04T15:05:10.471Z,10.10
2019-03-04T15:06:17.870Z,5.00